Time;durP1;ratioP1;P1;durP2;ratioP2;P2;SDS_P1;SDS_P2;PMS_P1;PMS_P2;Temp;Humidity;BMP_temperature;BMP_pressure;BME280_temperature;BME280_humidity;BME280_pressure;Samples;Min_cycle;Max_cycle;Signal;HPM_P1;HPM_P2
2022/07/31 00:00:06;;;;;;;8.75;2.60;;;19.10;99.90;;;;;;4938395;28;20155;-91
2022/07/31 00:02:32;;;;;;;7.32;2.40;;;19.00;99.90;;;;;;4953400;28;20050;-91
2022/07/31 00:04:57;;;;;;;9.35;2.42;;;19.00;99.90;;;;;;4953266;28;20530;-91
2022/07/31 00:07:23;;;;;;;6.05;2.35;;;19.00;99.90;;;;;;4937821;28;20066;-90
2022/07/31 00:09:49;;;;;;;8.38;2.53;;;19.00;99.90;;;;;;4937385;28;20043;-92
2022/07/31 00:12:15;;;;;;;7.25;2.08;;;19.00;99.90;;;;;;4952164;28;20023;-91
2022/07/31 00:14:41;;;;;;;7.60;2.40;;;19.00;99.90;;;;;;4955249;28;20035;-92
2022/07/31 00:17:06;;;;;;;7.07;2.42;;;19.00;99.90;;;;;;4952065;28;20121;-91
2022/07/31 00:19:32;;;;;;;7.65;2.15;;;19.00;99.90;;;;;;4968860;28;20133;-91
2022/07/31 00:21:58;;;;;;;7.25;2.30;;;19.00;99.90;;;;;;4935845;29;20043;-91
2022/07/31 00:24:24;;;;;;;9.82;2.58;;;19.00;99.90;;;;;;4956370;28;20086;-90
2022/07/31 00:26:50;;;;;;;7.63;2.42;;;19.00;99.90;;;;;;4937900;28;20063;-90
2022/07/31 00:29:15;;;;;;;10.00;2.70;;;19.00;99.90;;;;;;4952463;28;20049;-90
2022/07/31 00:31:41;;;;;;;8.43;2.65;;;18.90;99.90;;;;;;4935087;28;20054;-90
2022/07/31 00:34:07;;;;;;;7.47;2.55;;;19.00;99.90;;;;;;4953116;28;20536;-91
2022/07/31 00:36:32;;;;;;;9.00;2.70;;;18.90;99.90;;;;;;4937396;28;20492;-90
2022/07/31 00:38:58;;;;;;;5.65;2.40;;;18.90;99.90;;;;;;4956844;28;20039;-89
2022/07/31 00:41:24;;;;;;;6.05;2.10;;;18.90;99.90;;;;;;4978532;28;20034;-89
2022/07/31 00:43:49;;;;;;;9.43;2.45;;;18.90;99.90;;;;;;4976116;28;20046;-90
2022/07/31 00:46:15;;;;;;;7.90;2.35;;;18.90;99.90;;;;;;4930401;28;20043;-89
2022/07/31 00:48:41;;;;;;;8.80;2.40;;;18.90;99.90;;;;;;4967938;28;20061;-90
2022/07/31 00:51:06;;;;;;;7.13;2.50;;;18.90;99.90;;;;;;4980119;28;20051;-90
2022/07/31 00:53:32;;;;;;;7.85;2.50;;;18.90;99.90;;;;;;4969959;28;20045;-90
2022/07/31 00:55:58;;;;;;;8.50;2.50;;;18.90;99.90;;;;;;4937899;28;20488;-89
2022/07/31 00:58:24;;;;;;;7.43;2.67;;;18.80;99.90;;;;;;4947794;28;20045;-90
2022/07/31 01:00:50;;;;;;;9.75;2.50;;;18.80;99.90;;;;;;4959471;28;20035;-92
2022/07/31 01:03:17;;;;;;;7.65;2.40;;;18.80;99.90;;;;;;4959734;28;20491;-91
2022/07/31 01:05:43;;;;;;;9.25;2.60;;;18.80;99.90;;;;;;4943016;28;20047;-92
2022/07/31 01:08:09;;;;;;;10.07;2.70;;;18.80;99.90;;;;;;4943209;28;20154;-89
2022/07/31 01:10:48;;;;;;;8.60;2.72;;;18.80;99.90;;;;;;4957999;28;20043;-90
2022/07/31 01:13:38;;;;;;;7.78;2.55;;;18.80;99.90;;;;;;4959827;28;20127;-90
2022/07/31 01:16:06;;;;;;;7.78;2.70;;;18.80;99.90;;;;;;4975895;28;20101;-91
2022/07/31 01:18:35;;;;;;;8.30;2.70;;;18.70;99.90;;;;;;4958908;28;20741;-90
2022/07/31 01:21:06;;;;;;;9.50;2.80;;;18.70;99.90;;;;;;4972690;28;20045;-90
2022/07/31 01:24:13;;;;;;;6.72;2.30;;;18.70;99.90;;;;;;4974642;28;20082;-91
2022/07/31 01:26:51;;;;;;;8.40;2.60;;;18.70;99.90;;;;;;4959768;28;20051;-91
2022/07/31 01:29:27;;;;;;;6.90;2.38;;;18.70;99.90;;;;;;4977170;28;20050;-91
2022/07/31 01:32:03;;;;;;;7.68;2.45;;;18.60;99.90;;;;;;4955822;28;20533;-91
2022/07/31 01:34:32;;;;;;;6.97;2.50;;;18.60;99.90;;;;;;4973651;28;20026;-90
2022/07/31 01:37:28;;;;;;;8.13;2.45;;;18.60;99.90;;;;;;4974230;28;20205;-91
2022/07/31 01:40:04;;;;;;;9.38;2.63;;;18.60;99.90;;;;;;4975343;28;20047;-91
2022/07/31 01:42:33;;;;;;;13.00;2.72;;;18.50;99.90;;;;;;4964521;28;20284;-89
2022/07/31 01:45:00;;;;;;;7.10;2.40;;;18.50;99.90;;;;;;4978411;28;20039;-89
2022/07/31 01:47:28;;;;;;;9.15;2.75;;;18.50;99.90;;;;;;4970885;28;20122;-89
2022/07/31 01:49:57;;;;;;;9.07;2.78;;;18.50;99.90;;;;;;4983510;28;20051;-90
2022/07/31 01:52:25;;;;;;;10.40;2.90;;;18.50;99.90;;;;;;4960379;28;20042;-90
2022/07/31 01:54:53;;;;;;;9.05;2.40;;;18.50;99.90;;;;;;4974220;28;20039;-91
2022/07/31 01:57:22;;;;;;;9.63;2.75;;;18.50;99.90;;;;;;4958044;28;20496;-90
2022/07/31 01:59:50;;;;;;;7.70;2.47;;;18.50;99.90;;;;;;4972686;28;20202;-90
2022/07/31 02:02:18;;;;;;;7.28;2.80;;;18.50;99.90;;;;;;4955889;28;20417;-92
2022/07/31 02:04:45;;;;;;;9.55;3.17;;;18.50;99.90;;;;;;4973928;28;20109;-90
2022/07/31 02:07:13;;;;;;;11.07;3.10;;;18.40;99.90;;;;;;4955627;28;20046;-90
2022/07/31 02:09:41;;;;;;;7.90;2.70;;;18.40;99.90;;;;;;4937927;28;20038;-89
2022/07/31 02:12:09;;;;;;;8.10;2.85;;;18.40;99.90;;;;;;4952821;28;20038;-90
2022/07/31 02:14:35;;;;;;;6.90;2.50;;;18.40;99.90;;;;;;4949597;28;20154;-90
2022/07/31 02:17:01;;;;;;;8.50;2.80;;;18.40;99.90;;;;;;4924302;28;20121;-89
2022/07/31 02:19:28;;;;;;;9.15;2.80;;;18.40;99.90;;;;;;4969647;28;20058;-91
2022/07/31 02:21:54;;;;;;;7.82;2.60;;;18.40;99.90;;;;;;4955541;28;20070;-90
2022/07/31 02:24:21;;;;;;;8.90;2.65;;;18.40;99.90;;;;;;4939376;28;20038;-90
2022/07/31 02:26:47;;;;;;;7.25;2.58;;;18.40;99.90;;;;;;4955697;28;20122;-89
2022/07/31 02:29:18;;;;;;;7.47;2.65;;;18.40;99.90;;;;;;4954100;28;20125;-90
2022/07/31 02:31:45;;;;;;;7.93;2.55;;;18.40;99.90;;;;;;4969393;28;20086;-92
2022/07/31 02:34:12;;;;;;;10.05;2.75;;;18.40;99.90;;;;;;4952932;28;20455;-90
2022/07/31 02:36:39;;;;;;;8.18;2.78;;;18.40;99.90;;;;;;4969637;28;20046;-90
2022/07/31 02:39:08;;;;;;;7.63;2.95;;;18.40;99.90;;;;;;4954722;28;20042;-91
2022/07/31 02:41:35;;;;;;;7.38;2.50;;;18.40;99.90;;;;;;4955080;28;20046;-91
2022/07/31 02:44:01;;;;;;;8.93;2.47;;;18.40;99.90;;;;;;4951655;28;20126;-90
2022/07/31 02:46:28;;;;;;;8.90;2.90;;;18.40;99.90;;;;;;4953567;28;20081;-91
2022/07/31 02:48:55;;;;;;;9.35;2.80;;;18.40;99.90;;;;;;4955475;28;20039;-91
2022/07/31 02:51:22;;;;;;;9.00;2.80;;;18.40;99.90;;;;;;4954337;28;20435;-90
2022/07/31 02:53:48;;;;;;;9.07;2.70;;;18.30;99.90;;;;;;4952945;28;20392;-91
2022/07/31 02:56:15;;;;;;;9.82;2.80;;;18.30;99.90;;;;;;4953965;28;20045;-90
2022/07/31 02:58:41;;;;;;;8.52;2.80;;;18.30;99.90;;;;;;4954990;28;20050;-92
2022/07/31 03:01:07;;;;;;;6.80;2.60;;;18.30;99.90;;;;;;4954346;28;20039;-92
2022/07/31 03:03:34;;;;;;;9.63;2.70;;;18.30;99.90;;;;;;4934858;28;20035;-92
2022/07/31 03:06:00;;;;;;;7.43;2.75;;;18.30;99.90;;;;;;4953300;28;20047;-91
2022/07/31 03:08:28;;;;;;;7.85;2.75;;;18.30;99.90;;;;;;4953253;28;20046;-91
2022/07/31 03:10:54;;;;;;;9.35;2.60;;;18.30;99.90;;;;;;4952297;28;20329;-92
2022/07/31 03:13:23;;;;;;;6.85;2.78;;;18.30;99.90;;;;;;4945432;28;20035;-92
2022/07/31 03:15:50;;;;;;;8.40;3.05;;;18.30;99.90;;;;;;4953653;28;20054;-91
2022/07/31 03:18:17;;;;;;;8.25;2.55;;;18.30;99.90;;;;;;4936622;28;20411;-91
2022/07/31 03:20:45;;;;;;;7.95;2.63;;;18.30;99.90;;;;;;4969287;28;20038;-90
2022/07/31 03:23:12;;;;;;;9.82;2.90;;;18.30;99.90;;;;;;4968335;28;20038;-90
2022/07/31 03:25:41;;;;;;;7.80;2.65;;;18.20;99.90;;;;;;4937219;28;20488;-90
2022/07/31 03:28:07;;;;;;;8.30;2.45;;;18.20;99.90;;;;;;4967699;28;20070;-91
2022/07/31 03:30:34;;;;;;;7.75;2.72;;;18.20;99.90;;;;;;4936789;28;20053;-91
2022/07/31 03:33:02;;;;;;;7.35;2.58;;;18.20;99.90;;;;;;4951340;28;20078;-91
2022/07/31 03:35:28;;;;;;;7.68;2.75;;;18.20;99.90;;;;;;4950045;28;20094;-91
2022/07/31 03:37:54;;;;;;;6.95;2.53;;;18.20;99.90;;;;;;4935721;28;20035;-91
2022/07/31 03:40:20;;;;;;;6.78;2.47;;;18.20;99.90;;;;;;4934667;28;20050;-90
2022/07/31 03:42:50;;;;;;;6.60;2.50;;;18.20;99.90;;;;;;4966664;28;20057;-91
2022/07/31 03:45:17;;;;;;;7.70;2.65;;;18.20;99.90;;;;;;4951090;28;20038;-92
2022/07/31 03:47:43;;;;;;;8.13;2.95;;;18.10;99.90;;;;;;4935876;28;20043;-90
2022/07/31 03:50:10;;;;;;;8.93;2.65;;;18.10;99.90;;;;;;4968249;28;20037;-91
2022/07/31 03:52:36;;;;;;;6.10;2.47;;;18.10;99.90;;;;;;4936255;28;20035;-91
2022/07/31 03:55:02;;;;;;;6.57;2.63;;;18.10;99.90;;;;;;4953882;28;20121;-92
2022/07/31 03:57:29;;;;;;;6.40;2.50;;;18.10;99.90;;;;;;4952501;28;20514;-91
2022/07/31 03:59:57;;;;;;;7.40;2.42;;;18.10;99.90;;;;;;4952292;28;20254;-92
2022/07/31 04:02:26;;;;;;;7.25;2.55;;;18.00;99.90;;;;;;4934536;28;20046;-90
2022/07/31 04:04:52;;;;;;;6.95;2.75;;;18.00;99.90;;;;;;4937091;28;20039;-91
2022/07/31 04:07:18;;;;;;;6.60;2.70;;;18.00;99.90;;;;;;4933547;28;20043;-91
2022/07/31 04:09:44;;;;;;;9.68;2.83;;;18.00;99.90;;;;;;4950511;28;20396;-93
2022/07/31 04:12:09;;;;;;;8.93;2.80;;;18.00;99.90;;;;;;4935994;28;20499;-90
2022/07/31 04:14:35;;;;;;;8.25;2.83;;;18.00;99.90;;;;;;4954004;28;20039;-91
2022/07/31 04:17:01;;;;;;;6.13;2.13;;;18.00;99.90;;;;;;4952503;28;20133;-92
2022/07/31 04:19:29;;;;;;;7.05;2.72;;;18.10;99.90;;;;;;4975391;28;20051;-90
2022/07/31 04:21:56;;;;;;;6.78;2.60;;;18.10;99.90;;;;;;4972390;28;20045;-91
2022/07/31 04:24:22;;;;;;;8.13;3.05;;;18.00;99.90;;;;;;4934845;28;20034;-92
2022/07/31 04:26:49;;;;;;;6.78;2.53;;;18.10;99.90;;;;;;4966853;28;20526;-92
2022/07/31 04:29:16;;;;;;;8.35;2.72;;;18.10;99.90;;;;;;4937773;28;20070;-91
2022/07/31 04:31:42;;;;;;;8.07;2.60;;;18.20;99.90;;;;;;4985431;28;20078;-91
2022/07/31 04:34:08;;;;;;;7.75;2.67;;;18.20;99.90;;;;;;4935764;28;20034;-90
2022/07/31 04:36:34;;;;;;;7.57;2.72;;;18.20;99.90;;;;;;4968466;28;20077;-92
2022/07/31 04:39:00;;;;;;;7.78;2.60;;;18.20;99.90;;;;;;4951838;28;20066;-90
2022/07/31 04:41:27;;;;;;;6.97;2.33;;;18.30;99.90;;;;;;4951114;28;20563;-91
2022/07/31 04:43:52;;;;;;;8.88;2.78;;;18.30;99.90;;;;;;4968400;28;20503;-91
2022/07/31 04:46:19;;;;;;;7.10;2.80;;;18.30;99.90;;;;;;4949875;28;20049;-91
2022/07/31 04:48:44;;;;;;;6.90;2.60;;;18.30;99.90;;;;;;4931887;29;20043;-90
2022/07/31 04:51:21;;;;;;;7.45;2.72;;;18.40;99.90;;;;;;4961960;28;20385;-91
2022/07/31 04:53:49;;;;;;;7.40;2.70;;;18.40;99.90;;;;;;4950516;28;20038;-91
2022/07/31 04:59:05;;;;;;;7.65;2.58;;;18.40;99.90;;;;;;4967723;28;20074;-91
2022/07/31 05:01:31;;;;;;;6.90;2.58;;;18.40;99.90;;;;;;4968712;28;20047;-91
2022/07/31 05:03:57;;;;;;;8.38;2.65;;;18.50;99.90;;;;;;4967143;28;20057;-90
2022/07/31 05:06:36;;;;;;;7.05;2.50;;;18.50;99.90;;;;;;4951817;28;20043;-92
2022/07/31 05:09:04;;;;;;;7.35;2.60;;;18.50;99.90;;;;;;4967572;28;20069;-91
2022/07/31 05:11:30;;;;;;;7.82;2.50;;;18.50;99.90;;;;;;4950664;28;20477;-91
2022/07/31 05:13:58;;;;;;;9.40;2.63;;;18.60;99.90;;;;;;4950609;28;20067;-90
2022/07/31 05:16:26;;;;;;;6.35;2.30;;;18.60;99.90;;;;;;4950742;28;20042;-91
2022/07/31 05:18:52;;;;;;;7.00;2.70;;;18.60;99.90;;;;;;4951791;28;20043;-91
2022/07/31 05:21:18;;;;;;;10.32;2.92;;;18.60;99.90;;;;;;4951195;28;20057;-90
2022/07/31 05:23:46;;;;;;;6.95;2.60;;;18.70;99.90;;;;;;4935184;28;20436;-90
2022/07/31 05:26:12;;;;;;;7.70;2.72;;;18.70;99.90;;;;;;4951623;28;20051;-91
2022/07/31 05:28:39;;;;;;;8.25;2.47;;;18.80;99.90;;;;;;4971785;28;20159;-92
2022/07/31 05:31:06;;;;;;;8.48;2.80;;;18.80;99.90;;;;;;4950296;28;20096;-91
2022/07/31 05:33:32;;;;;;;8.63;2.83;;;18.90;99.90;;;;;;4960090;28;20133;-88
2022/07/31 05:35:59;;;;;;;7.28;2.38;;;18.90;99.90;;;;;;4952567;28;20113;-91
2022/07/31 05:38:25;;;;;;;9.65;3.00;;;18.80;99.90;;;;;;4949674;28;20035;-92
2022/07/31 05:40:52;;;;;;;7.40;2.60;;;18.50;99.90;;;;;;4937636;28;20051;-90
2022/07/31 05:43:17;;;;;;;7.93;2.50;;;18.90;99.90;;;;;;4957186;28;20074;-92
2022/07/31 05:45:45;;;;;;;6.13;2.30;;;18.90;99.90;;;;;;4939903;28;20266;-92
2022/07/31 05:48:12;;;;;;;7.72;2.70;;;18.90;99.90;;;;;;4941181;28;20129;-92
2022/07/31 05:50:44;;;;;;;8.48;2.83;;;18.90;99.90;;;;;;4957095;28;20054;-91
2022/07/31 05:53:11;;;;;;;7.20;2.50;;;18.90;99.90;;;;;;4959378;28;20508;-90
2022/07/31 05:55:38;;;;;;;7.65;2.65;;;18.90;99.90;;;;;;4978485;28;20050;-91
2022/07/31 05:58:04;;;;;;;7.20;2.65;;;18.90;99.90;;;;;;4958095;28;20081;-90
2022/07/31 06:00:30;;;;;;;7.00;2.70;;;18.90;99.90;;;;;;4947935;28;20039;-92
2022/07/31 06:02:56;;;;;;;7.65;2.75;;;18.90;99.90;;;;;;4967128;28;20388;-91
2022/07/31 06:05:22;;;;;;;9.63;3.20;;;18.90;99.90;;;;;;4941089;28;20180;-91
2022/07/31 06:07:50;;;;;;;8.45;2.88;;;19.00;99.90;;;;;;4974492;28;20401;-90
2022/07/31 06:10:16;;;;;;;11.45;3.38;;;19.00;99.90;;;;;;4940584;28;20046;-90
2022/07/31 06:12:41;;;;;;;7.90;2.90;;;19.00;99.90;;;;;;4973085;28;20126;-92
2022/07/31 06:15:07;;;;;;;6.57;2.80;;;19.00;99.90;;;;;;4956502;28;20050;-91
2022/07/31 06:17:33;;;;;;;8.82;2.90;;;19.10;99.90;;;;;;4956181;28;20050;-91
2022/07/31 06:19:59;;;;;;;7.93;3.05;;;19.10;99.90;;;;;;4968945;28;20046;-90
2022/07/31 06:22:25;;;;;;;9.60;3.28;;;19.10;99.90;;;;;;4938416;28;20058;-90
2022/07/31 06:24:50;;;;;;;8.27;2.75;;;19.20;99.90;;;;;;4939177;28;20043;-92
2022/07/31 06:27:16;;;;;;;7.72;2.78;;;19.20;99.90;;;;;;4957253;28;20061;-91
2022/07/31 06:29:42;;;;;;;9.32;3.38;;;19.30;99.90;;;;;;4921304;28;20030;-92
2022/07/31 06:32:08;;;;;;;8.50;3.10;;;19.40;99.90;;;;;;4951150;28;20036;-89
2022/07/31 06:34:34;;;;;;;7.90;2.92;;;19.40;99.90;;;;;;4950431;28;20461;-90
2022/07/31 06:36:59;;;;;;;9.65;3.40;;;19.50;99.90;;;;;;4956650;28;20047;-90
2022/07/31 06:39:25;;;;;;;9.65;3.45;;;19.50;99.90;;;;;;4956066;28;20110;-89
2022/07/31 06:41:51;;;;;;;9.98;3.10;;;19.60;99.90;;;;;;4933451;29;20043;-89
2022/07/31 06:44:18;;;;;;;7.93;2.83;;;19.60;99.90;;;;;;4952483;28;20054;-90
2022/07/31 06:46:45;;;;;;;6.93;2.80;;;19.70;99.90;;;;;;4938706;28;20069;-91
2022/07/31 06:49:11;;;;;;;7.88;3.00;;;19.80;99.90;;;;;;4953873;28;20122;-90
2022/07/31 06:51:38;;;;;;;9.15;3.22;;;19.80;99.90;;;;;;4935767;28;20129;-89
2022/07/31 06:54:05;;;;;;;7.50;3.03;;;19.80;99.90;;;;;;4955704;28;20391;-90
2022/07/31 06:56:32;;;;;;;9.15;3.30;;;19.80;99.90;;;;;;4935583;28;20043;-90
2022/07/31 06:58:58;;;;;;;7.85;3.50;;;19.90;99.90;;;;;;4965040;28;20034;-92
2022/07/31 07:01:24;;;;;;;8.48;3.28;;;20.00;99.90;;;;;;4955224;28;20404;-88
2022/07/31 07:03:50;;;;;;;10.77;3.35;;;20.00;99.90;;;;;;4955177;28;20043;-90
2022/07/31 07:06:16;;;;;;;9.00;3.20;;;20.00;99.90;;;;;;4952855;28;20507;-91
2022/07/31 07:08:42;;;;;;;8.13;3.30;;;20.00;99.90;;;;;;4953287;28;20043;-92
2022/07/31 07:11:07;;;;;;;9.63;3.20;;;20.30;99.90;;;;;;4939400;28;20428;-89
2022/07/31 07:13:33;;;;;;;7.43;3.08;;;20.10;99.90;;;;;;4953762;28;20125;-89
2022/07/31 07:15:58;;;;;;;10.15;3.35;;;20.10;99.90;;;;;;4972020;28;20098;-89
2022/07/31 07:18:24;;;;;;;7.32;2.97;;;20.10;99.90;;;;;;4932932;28;20408;-90
2022/07/31 07:20:50;;;;;;;9.13;3.15;;;20.10;99.90;;;;;;4943954;28;20048;-90
2022/07/31 07:23:17;;;;;;;8.63;3.10;;;20.10;99.90;;;;;;4977335;28;20039;-89
2022/07/31 07:25:42;;;;;;;9.48;3.25;;;20.20;99.90;;;;;;4969040;28;20047;-91
2022/07/31 07:28:08;;;;;;;10.68;3.33;;;20.20;99.90;;;;;;4938375;28;20098;-91
2022/07/31 07:30:34;;;;;;;7.78;3.13;;;20.20;99.90;;;;;;4939295;28;20474;-92
2022/07/31 07:33:01;;;;;;;7.82;3.00;;;20.20;99.90;;;;;;4952734;28;20122;-90
2022/07/31 07:35:27;;;;;;;8.32;3.10;;;20.30;99.90;;;;;;4970534;28;20039;-90
2022/07/31 07:37:53;;;;;;;8.35;3.17;;;20.50;99.90;;;;;;4953180;28;20051;-90
2022/07/31 07:40:19;;;;;;;7.50;3.20;;;20.30;99.90;;;;;;4951486;28;20035;-89
2022/07/31 07:42:45;;;;;;;8.20;3.10;;;20.40;99.90;;;;;;4936775;28;20122;-88
2022/07/31 07:45:12;;;;;;;8.10;3.28;;;20.40;99.90;;;;;;4952578;28;20433;-90
2022/07/31 07:47:38;;;;;;;8.18;3.05;;;20.40;99.90;;;;;;4959092;28;20106;-90
2022/07/31 07:50:09;;;;;;;7.78;3.25;;;20.50;99.90;;;;;;4986195;28;20038;-88
2022/07/31 07:52:35;;;;;;;9.05;3.50;;;20.50;99.90;;;;;;4937782;28;20039;-88
2022/07/31 07:55:03;;;;;;;9.50;3.40;;;20.60;99.90;;;;;;4954059;28;20043;-90
2022/07/31 07:57:29;;;;;;;9.45;3.40;;;20.70;99.90;;;;;;4947567;28;20468;-90
2022/07/31 07:59:58;;;;;;;10.75;3.72;;;20.80;99.90;;;;;;4931616;28;20047;-90
2022/07/31 08:02:24;;;;;;;9.35;3.55;;;20.80;99.90;;;;;;4945956;28;20129;-88
2022/07/31 08:04:49;;;;;;;8.43;3.70;;;20.90;99.90;;;;;;4954212;28;20121;-90
2022/07/31 08:07:15;;;;;;;9.77;3.97;;;20.90;99.90;;;;;;4921227;28;20074;-89
2022/07/31 08:09:41;;;;;;;8.95;3.45;;;21.00;99.90;;;;;;4922358;28;20043;-88
2022/07/31 08:12:07;;;;;;;7.30;3.20;;;21.00;99.90;;;;;;4949028;28;20042;-88
2022/07/31 08:14:33;;;;;;;9.13;3.55;;;21.20;99.90;;;;;;4964151;28;20038;-89
2022/07/31 08:16:59;;;;;;;10.25;3.83;;;21.30;99.90;;;;;;4952114;28;20122;-89
2022/07/31 08:19:25;;;;;;;11.82;4.35;;;21.50;99.90;;;;;;4937890;28;20486;-89
2022/07/31 08:21:50;;;;;;;11.13;4.32;;;21.50;99.90;;;;;;4937988;28;20043;-89
2022/07/31 08:24:16;;;;;;;8.20;3.90;;;21.70;99.90;;;;;;4916382;28;20058;-89
2022/07/31 08:27:27;;;;;;;9.55;4.13;;;21.80;99.90;;;;;;4951201;28;20059;-90
2022/07/31 08:29:28;;;;;;;10.90;4.30;;;21.90;99.90;;;;;;4959269;28;20057;-88
2022/07/31 08:31:54;;;;;;;8.80;4.25;;;22.00;99.90;;;;;;4934175;28;20035;-87
2022/07/31 08:34:20;;;;;;;8.73;4.63;;;22.10;99.90;;;;;;4935190;28;20121;-87
2022/07/31 08:36:45;;;;;;;13.07;4.90;;;22.10;99.90;;;;;;4919395;28;20038;-90
2022/07/31 08:39:11;;;;;;;13.60;4.63;;;22.20;99.90;;;;;;4920566;28;20046;-89
2022/07/31 08:41:39;;;;;;;10.35;4.85;;;22.20;99.90;;;;;;4949115;28;20690;-89
2022/07/31 08:44:06;;;;;;;10.70;4.38;;;22.30;99.90;;;;;;4948230;28;20053;-89
2022/07/31 08:46:35;;;;;;;10.27;5.13;;;22.30;99.90;;;;;;4965958;28;20400;-88
2022/07/31 08:49:02;;;;;;;13.10;5.03;;;22.30;99.90;;;;;;4952231;28;20042;-89
2022/07/31 08:51:33;;;;;;;11.45;4.38;;;22.30;99.90;;;;;;4956489;28;20488;-89
2022/07/31 08:54:01;;;;;;;12.70;5.03;;;22.20;99.90;;;;;;4952225;28;20039;-90
2022/07/31 08:56:28;;;;;;;10.80;4.95;;;22.10;99.90;;;;;;4952206;28;20460;-91
2022/07/31 08:58:56;;;;;;;10.15;5.03;;;22.00;99.90;;;;;;4951491;28;20523;-91
2022/07/31 09:01:22;;;;;;;9.82;4.28;;;22.00;99.90;;;;;;4937777;28;20117;-91
2022/07/31 09:03:48;;;;;;;9.20;4.40;;;21.90;99.90;;;;;;4933542;28;20043;-91
2022/07/31 09:06:14;;;;;;;11.18;4.40;;;21.80;99.90;;;;;;4953911;28;20181;-91
2022/07/31 09:08:40;;;;;;;10.32;4.20;;;21.70;99.90;;;;;;4953200;28;20042;-92
2022/07/31 09:11:08;;;;;;;13.68;4.50;;;21.70;99.90;;;;;;4951725;28;20289;-93
2022/07/31 09:13:34;;;;;;;11.68;4.90;;;21.60;99.90;;;;;;4967701;28;20177;-91
2022/07/31 09:16:01;;;;;;;9.82;4.50;;;21.50;99.90;;;;;;4956318;28;20703;-92
2022/07/31 09:18:27;;;;;;;10.85;4.85;;;21.40;99.90;;;;;;4956169;28;20046;-93
2022/07/31 09:20:58;;;;;;;10.80;4.32;;;21.40;99.90;;;;;;4940912;28;20186;-91
2022/07/31 09:23:25;;;;;;;13.35;4.65;;;21.30;99.90;;;;;;4960323;28;20070;-91
2022/07/31 09:25:55;;;;;;;11.32;4.30;;;21.20;99.90;;;;;;4951265;28;20038;-92
2022/07/31 09:28:37;;;;;;;11.48;4.57;;;21.10;99.90;;;;;;4956894;28;20100;-92
2022/07/31 09:31:04;;;;;;;10.75;4.60;;;21.10;99.90;;;;;;4972904;28;20046;-92
2022/07/31 09:33:30;;;;;;;10.38;4.70;;;21.00;99.90;;;;;;4955448;28;20097;-91
2022/07/31 09:35:58;;;;;;;10.02;5.40;;;21.00;99.90;;;;;;4956255;28;20027;-91
2022/07/31 09:38:35;;;;;;;10.45;4.68;;;21.00;99.90;;;;;;4936994;29;20039;-91
2022/07/31 09:41:14;;;;;;;9.65;5.10;;;21.00;99.90;;;;;;4954869;28;20508;-92
2022/07/31 09:43:41;;;;;;;11.20;5.82;;;21.00;99.90;;;;;;4937226;28;20054;-90
2022/07/31 09:46:07;;;;;;;11.35;6.10;;;21.00;99.90;;;;;;4924399;28;20069;-92
2022/07/31 09:48:34;;;;;;;13.57;6.43;;;20.90;99.90;;;;;;4971981;28;20046;-91
2022/07/31 09:51:06;;;;;;;12.38;6.78;;;20.90;99.90;;;;;;4956639;28;20098;-91
2022/07/31 09:53:41;;;;;;;15.77;6.50;;;20.90;99.90;;;;;;4966977;28;20069;-90
2022/07/31 09:56:09;;;;;;;12.05;6.25;;;20.80;99.90;;;;;;4971887;28;20294;-91
2022/07/31 09:58:35;;;;;;;12.18;6.43;;;20.80;99.90;;;;;;4940148;28;20047;-91
2022/07/31 10:01:01;;;;;;;11.68;6.07;;;20.70;99.90;;;;;;4971904;28;20042;-91
2022/07/31 10:03:28;;;;;;;12.65;6.03;;;20.70;99.90;;;;;;4974794;28;20048;-90
2022/07/31 10:05:55;;;;;;;9.82;5.65;;;20.70;99.90;;;;;;4945154;28;20412;-91
2022/07/31 10:08:22;;;;;;;12.60;6.47;;;20.70;99.90;;;;;;4963257;28;20037;-90
2022/07/31 10:10:48;;;;;;;12.25;6.22;;;20.70;99.90;;;;;;4934901;28;20320;-90
2022/07/31 10:13:18;;;;;;;15.20;7.07;;;20.70;99.90;;;;;;4957915;28;20035;-90
2022/07/31 10:15:46;;;;;;;13.73;6.70;;;20.70;99.90;;;;;;4970872;28;20053;-89
2022/07/31 10:18:14;;;;;;;12.18;7.57;;;20.70;99.90;;;;;;4973062;28;20039;-88
2022/07/31 10:20:42;;;;;;;13.07;7.15;;;20.70;99.90;;;;;;4972706;28;20427;-87
2022/07/31 10:23:14;;;;;;;12.43;7.47;;;20.70;99.90;;;;;;4956383;28;20400;-87
2022/07/31 10:25:46;;;;;;;12.15;7.38;;;20.70;99.90;;;;;;4970422;28;20038;-87
2022/07/31 10:28:13;;;;;;;11.60;7.00;;;20.70;99.90;;;;;;4956098;28;20535;-88
2022/07/31 10:30:38;;;;;;;13.55;7.40;;;20.80;99.90;;;;;;4972389;28;20381;-87
2022/07/31 10:33:07;;;;;;;11.90;7.20;;;20.70;99.90;;;;;;4940358;28;20046;-89
2022/07/31 10:35:39;;;;;;;13.40;8.52;;;20.80;99.90;;;;;;4955314;28;20046;-88
2022/07/31 10:38:24;;;;;;;16.60;8.70;;;20.80;99.90;;;;;;4940062;28;20034;-88
2022/07/31 10:41:13;;;;;;;13.52;7.90;;;20.90;99.90;;;;;;4956013;28;20488;-87
2022/07/31 10:43:55;;;;;;;11.18;7.78;;;20.90;99.90;;;;;;4929087;28;20082;-88
2022/07/31 10:46:29;;;;;;;12.15;7.43;;;20.90;99.90;;;;;;4962329;28;20042;-87
2022/07/31 10:48:55;;;;;;;13.02;7.63;;;20.80;99.90;;;;;;4971754;28;20345;-86
2022/07/31 10:51:22;;;;;;;15.85;8.40;;;20.80;99.90;;;;;;4972141;28;20034;-85
2022/07/31 10:54:04;;;;;;;16.17;8.55;;;20.70;99.90;;;;;;4955533;28;20085;-85
2022/07/31 10:56:41;;;;;;;14.45;7.88;;;20.70;99.90;;;;;;4953186;28;20031;-84
2022/07/31 10:59:07;;;;;;;15.10;8.52;;;20.70;99.90;;;;;;4941035;28;20066;-84
2022/07/31 11:01:32;;;;;;;13.50;8.45;;;20.70;99.90;;;;;;4969094;28;20085;-84
2022/07/31 11:04:01;;;;;;;14.15;7.78;;;20.60;99.90;;;;;;4953145;28;20130;-85
2022/07/31 11:06:40;;;;;;;15.73;9.30;;;20.60;99.90;;;;;;4970287;28;20452;-84
2022/07/31 11:09:06;;;;;;;13.05;8.07;;;20.60;99.90;;;;;;4932872;28;20125;-84
2022/07/31 11:11:36;;;;;;;14.38;8.18;;;20.50;99.90;;;;;;4955444;28;20207;-84
2022/07/31 11:14:02;;;;;;;14.60;8.48;;;20.50;99.90;;;;;;4950612;28;20103;-85
2022/07/31 11:16:28;;;;;;;16.08;8.65;;;20.40;99.90;;;;;;4985497;28;20135;-85
2022/07/31 11:18:59;;;;;;;14.95;8.88;;;20.40;99.90;;;;;;4931512;28;20067;-84
2022/07/31 11:21:41;;;;;;;15.45;9.13;;;20.30;99.90;;;;;;4953317;28;20452;-83
2022/07/31 11:24:18;;;;;;;13.85;9.15;;;20.40;99.90;;;;;;4953987;28;20034;-84
2022/07/31 11:26:49;;;;;;;13.55;8.85;;;20.40;99.90;;;;;;4953643;28;20054;-84
2022/07/31 11:29:27;;;;;;;13.25;8.63;;;20.40;99.90;;;;;;4953170;28;20042;-83
2022/07/31 11:31:53;;;;;;;13.20;8.15;;;20.40;99.90;;;;;;4960551;28;20054;-84
2022/07/31 11:34:18;;;;;;;13.52;8.80;;;20.50;99.90;;;;;;4936021;28;20039;-84
2022/07/31 11:36:44;;;;;;;14.18;8.38;;;20.40;99.90;;;;;;4990801;28;20429;-83
2022/07/31 11:39:13;;;;;;;13.73;8.05;;;20.40;99.90;;;;;;4965776;28;20035;-83
2022/07/31 11:41:38;;;;;;;14.90;8.15;;;20.30;99.90;;;;;;4920305;28;20515;-83
2022/07/31 11:44:04;;;;;;;11.93;7.45;;;20.30;99.90;;;;;;4938376;28;20078;-84
2022/07/31 11:46:32;;;;;;;13.00;8.30;;;20.20;99.90;;;;;;4918218;28;20035;-83
2022/07/31 11:48:59;;;;;;;12.82;7.53;;;20.20;99.90;;;;;;4952867;28;20043;-84
2022/07/31 11:51:26;;;;;;;13.52;7.70;;;20.10;99.90;;;;;;4950497;28;20038;-83
2022/07/31 11:53:54;;;;;;;12.38;7.75;;;20.00;99.90;;;;;;4977975;28;20066;-84
2022/07/31 11:56:21;;;;;;;12.07;7.80;;;19.90;99.90;;;;;;4967735;28;20523;-84
2022/07/31 11:58:51;;;;;;;14.10;7.85;;;19.80;99.90;;;;;;4934559;28;20097;-84
2022/07/31 12:01:18;;;;;;;12.23;7.78;;;19.80;99.90;;;;;;4966496;28;20059;-84
2022/07/31 12:03:45;;;;;;;12.55;7.90;;;19.80;99.90;;;;;;4948237;28;20384;-84
2022/07/31 12:06:11;;;;;;;14.15;8.00;;;19.80;99.90;;;;;;4969992;28;20046;-83
2022/07/31 12:08:38;;;;;;;14.05;8.55;;;19.80;99.90;;;;;;4952955;28;20118;-84
2022/07/31 12:11:06;;;;;;;13.27;8.48;;;19.80;99.90;;;;;;4969639;28;20183;-83
2022/07/31 12:13:32;;;;;;;16.35;8.63;;;19.70;99.90;;;;;;4248254;28;9999940;-83
2022/07/31 12:16:06;;;;;;;12.75;8.82;;;19.70;99.90;;;;;;4947999;28;20035;-84
2022/07/31 12:18:53;;;;;;;12.88;8.98;;;19.70;99.90;;;;;;4949421;28;20057;-83
2022/07/31 12:21:20;;;;;;;16.08;9.02;;;19.70;99.90;;;;;;4950853;28;20053;-83
2022/07/31 12:23:50;;;;;;;14.32;9.73;;;19.60;99.90;;;;;;4963089;28;20133;-83
2022/07/31 12:26:28;;;;;;;14.57;10.10;;;19.60;99.90;;;;;;4951766;28;20085;-83
2022/07/31 12:29:07;;;;;;;14.77;9.80;;;19.60;99.90;;;;;;4957014;28;20058;-83
2022/07/31 12:31:46;;;;;;;18.08;10.45;;;19.60;99.90;;;;;;4963680;28;20061;-84
2022/07/31 12:34:23;;;;;;;14.57;9.55;;;19.60;99.90;;;;;;4949330;28;20039;-83
2022/07/31 12:36:59;;;;;;;14.43;10.05;;;19.60;99.90;;;;;;4944085;28;20077;-83
2022/07/31 12:39:25;;;;;;;13.93;9.82;;;19.60;99.90;;;;;;4946122;28;20061;-83
2022/07/31 12:41:50;;;;;;;13.70;9.43;;;19.60;99.90;;;;;;4944840;28;20520;-83
2022/07/31 12:44:16;;;;;;;13.82;9.02;;;19.60;99.90;;;;;;4932431;28;20039;-83
2022/07/31 12:46:42;;;;;;;12.90;8.40;;;19.60;99.90;;;;;;4949468;28;20436;-83
2022/07/31 12:49:08;;;;;;;12.13;8.27;;;19.50;99.90;;;;;;4930855;28;20135;-83